Time;durP1;ratioP1;P1;durP2;ratioP2;P2;SDS_P1;SDS_P2;PMS_P1;PMS_P2;Temp;Humidity;BMP_temperature;BMP_pressure;BME280_temperature;BME280_humidity;BME280_pressure;Samples;Min_cycle;Max_cycle;Signal;HPM_P1;HPM_P2
2021/03/31 00:02:16;;;;;;;30.35;21.20;;;17.10;56.10;;;;;;5036025;28;20052;-68
2021/03/31 00:04:41;;;;;;;30.60;21.30;;;17.10;56.20;;;;;;5035823;28;20022;-67
2021/03/31 00:07:10;;;;;;;30.70;20.88;;;17.10;56.30;;;;;;5034514;28;20028;-68
2021/03/31 00:09:36;;;;;;;32.80;20.42;;;17.10;56.20;;;;;;5035956;28;20112;-68
2021/03/31 00:12:02;;;;;;;30.20;21.50;;;17.00;56.30;;;;;;5035696;28;20021;-67
2021/03/31 00:14:28;;;;;;;27.95;20.58;;;17.00;56.80;;;;;;5035504;28;20029;-67
2021/03/31 00:16:54;;;;;;;31.27;21.00;;;17.10;56.70;;;;;;5035346;28;20049;-68
2021/03/31 00:19:19;;;;;;;30.70;21.23;;;17.10;56.70;;;;;;5035464;28;20045;-68
2021/03/31 00:21:45;;;;;;;29.17;19.08;;;17.10;56.70;;;;;;5035475;28;20052;-67
2021/03/31 00:24:11;;;;;;;26.70;18.92;;;17.00;56.70;;;;;;5034083;28;20129;-67
2021/03/31 00:26:37;;;;;;;27.15;17.83;;;16.90;56.90;;;;;;5035616;28;20025;-69
2021/03/31 00:29:03;;;;;;;23.92;16.80;;;16.80;57.10;;;;;;5035250;28;20034;-67
2021/03/31 00:31:29;;;;;;;25.85;18.77;;;16.90;57.20;;;;;;5035130;28;20363;-69
2021/03/31 00:33:54;;;;;;;29.27;18.45;;;16.80;57.50;;;;;;5035473;28;20035;-67
2021/03/31 00:36:20;;;;;;;26.38;17.35;;;16.70;57.10;;;;;;5035191;28;20478;-68
2021/03/31 00:38:46;;;;;;;25.98;18.15;;;16.70;57.70;;;;;;5035470;28;20045;-68
2021/03/31 00:41:12;;;;;;;26.13;17.95;;;16.80;57.60;;;;;;5035182;28;20113;-67
2021/03/31 00:43:37;;;;;;;25.60;18.45;;;16.80;57.50;;;;;;5035231;28;20033;-67
2021/03/31 00:46:03;;;;;;;25.20;17.92;;;16.80;57.40;;;;;;5034898;28;20490;-67
2021/03/31 00:48:29;;;;;;;27.67;18.20;;;16.80;57.80;;;;;;5035143;28;20101;-67
2021/03/31 00:50:57;;;;;;;29.67;18.33;;;16.80;57.80;;;;;;5035075;28;20032;-68
2021/03/31 00:53:41;;;;;;;26.98;18.92;;;16.70;57.90;;;;;;5034718;28;20025;-67
2021/03/31 00:56:08;;;;;;;32.83;19.42;;;16.60;58.40;;;;;;5034998;28;20018;-68
2021/03/31 00:58:36;;;;;;;28.00;18.42;;;16.60;58.20;;;;;;5034801;28;20117;-67
2021/03/31 01:01:02;;;;;;;29.45;18.75;;;16.50;57.90;;;;;;5034043;28;20053;-67
2021/03/31 01:03:28;;;;;;;28.75;19.65;;;16.40;58.10;;;;;;5034854;28;20041;-67
2021/03/31 01:05:53;;;;;;;30.95;19.48;;;16.30;58.40;;;;;;5034873;28;20070;-67
2021/03/31 01:08:19;;;;;;;27.15;20.13;;;16.30;58.90;;;;;;5034799;28;20033;-67
2021/03/31 01:10:52;;;;;;;24.75;18.42;;;16.40;58.80;;;;;;5034713;28;20029;-67
2021/03/31 01:13:59;;;;;;;26.63;18.27;;;16.40;58.50;;;;;;5033200;28;20104;-67
2021/03/31 01:16:56;;;;;;;34.05;20.60;;;16.40;58.80;;;;;;5034383;28;20041;-67
2021/03/31 01:19:49;;;;;;;30.35;18.70;;;16.40;58.30;;;;;;5030168;28;20045;-67
2021/03/31 01:22:53;;;;;;;27.58;19.92;;;16.40;58.60;;;;;;5034711;28;20029;-68
2021/03/31 01:25:22;;;;;;;28.55;19.30;;;16.40;58.50;;;;;;5034382;28;20156;-67
2021/03/31 01:28:25;;;;;;;27.90;19.85;;;16.40;58.80;;;;;;5034276;28;20036;-67
2021/03/31 01:31:03;;;;;;;31.83;19.20;;;16.40;58.50;;;;;;5034148;28;20034;-67
2021/03/31 01:33:39;;;;;;;28.80;19.98;;;16.30;58.90;;;;;;5034351;28;20374;-67
2021/03/31 01:36:07;;;;;;;27.13;20.60;;;16.30;59.10;;;;;;5034064;28;20022;-68
2021/03/31 01:38:33;;;;;;;27.98;19.95;;;16.40;58.60;;;;;;5034143;28;20037;-67
2021/03/31 01:41:02;;;;;;;29.77;20.40;;;16.40;58.70;;;;;;5034022;28;20025;-67
2021/03/31 01:43:31;;;;;;;30.10;21.45;;;16.40;58.50;;;;;;5034239;28;20087;-67
2021/03/31 01:45:57;;;;;;;31.15;20.92;;;16.40;58.40;;;;;;5034208;28;20014;-68
2021/03/31 01:48:31;;;;;;;26.40;20.27;;;16.30;58.50;;;;;;5033870;28;20074;-68
2021/03/31 01:51:09;;;;;;;28.05;19.75;;;16.30;58.90;;;;;;5033969;28;20013;-68
2021/03/31 01:53:35;;;;;;;29.60;21.35;;;16.20;58.90;;;;;;5034047;28;20446;-68
2021/03/31 01:56:01;;;;;;;29.33;19.92;;;16.10;59.00;;;;;;5033937;28;20087;-67
2021/03/31 01:58:29;;;;;;;31.63;22.10;;;16.10;59.10;;;;;;5033883;28;20040;-67
2021/03/31 02:00:55;;;;;;;34.65;23.02;;;16.10;59.30;;;;;;5033606;28;20044;-68
2021/03/31 02:03:22;;;;;;;32.53;21.35;;;16.10;59.30;;;;;;5033801;28;20114;-67
2021/03/31 02:05:48;;;;;;;29.63;23.02;;;16.00;59.20;;;;;;5033683;28;20022;-67
2021/03/31 02:08:15;;;;;;;33.50;22.85;;;15.90;59.20;;;;;;5033694;28;20036;-67
2021/03/31 02:10:43;;;;;;;32.70;22.27;;;15.80;59.30;;;;;;5033108;28;20092;-66
2021/03/31 02:13:11;;;;;;;28.77;21.55;;;15.80;59.60;;;;;;5033035;28;20022;-66
2021/03/31 02:15:39;;;;;;;29.13;21.88;;;15.80;59.40;;;;;;5033436;28;20041;-67
2021/03/31 02:18:07;;;;;;;32.60;20.67;;;15.90;59.70;;;;;;5033518;28;20049;-68
2021/03/31 02:20:34;;;;;;;29.92;20.92;;;16.00;59.00;;;;;;5033702;28;20030;-68
2021/03/31 02:23:02;;;;;;;35.25;21.98;;;16.00;58.80;;;;;;5033523;28;20071;-66
2021/03/31 02:25:28;;;;;;;34.28;20.75;;;16.00;58.70;;;;;;5032415;28;20040;-67
2021/03/31 02:27:53;;;;;;;28.10;18.02;;;16.00;58.80;;;;;;5033304;28;20033;-67
2021/03/31 02:30:23;;;;;;;24.13;18.00;;;15.70;58.10;;;;;;5033326;28;20044;-67
2021/03/31 02:32:52;;;;;;;27.30;18.40;;;15.80;57.90;;;;;;5033788;28;20029;-67
2021/03/31 02:35:22;;;;;;;28.08;18.20;;;15.80;57.60;;;;;;5033397;28;20024;-66
2021/03/31 02:37:55;;;;;;;31.63;19.02;;;15.60;57.80;;;;;;5033548;28;20470;-66
2021/03/31 02:40:22;;;;;;;27.58;19.50;;;15.60;57.70;;;;;;5033317;28;20368;-67
2021/03/31 02:42:48;;;;;;;24.65;18.45;;;15.60;58.10;;;;;;5033175;28;20076;-67
2021/03/31 02:45:16;;;;;;;27.20;17.65;;;15.50;57.70;;;;;;5033337;28;20121;-66
2021/03/31 02:47:44;;;;;;;27.30;18.00;;;15.40;57.80;;;;;;5033268;28;20033;-67
2021/03/31 02:50:14;;;;;;;25.92;18.73;;;15.40;57.50;;;;;;5033267;28;20030;-67
2021/03/31 02:52:42;;;;;;;28.45;18.42;;;15.40;57.90;;;;;;5031833;28;20010;-67
2021/03/31 02:55:10;;;;;;;28.52;18.95;;;15.40;57.90;;;;;;5033559;28;20072;-67
2021/03/31 02:57:36;;;;;;;23.52;18.17;;;15.30;57.80;;;;;;5033181;28;20021;-66
2021/03/31 03:00:06;;;;;;;31.15;19.27;;;15.30;57.90;;;;;;5033180;28;20045;-67
2021/03/31 03:02:32;;;;;;;30.80;18.98;;;15.30;58.30;;;;;;5033248;28;20425;-68
2021/03/31 03:05:01;;;;;;;26.35;18.33;;;15.40;57.90;;;;;;5033045;28;20026;-67
2021/03/31 03:07:27;;;;;;;24.75;18.05;;;15.40;57.90;;;;;;5033194;28;20420;-67
2021/03/31 03:09:53;;;;;;;23.13;18.08;;;15.50;57.60;;;;;;5032793;28;20104;-67
2021/03/31 03:12:20;;;;;;;25.67;18.58;;;15.60;57.50;;;;;;5033231;28;20024;-67
2021/03/31 03:14:48;;;;;;;27.27;17.30;;;15.70;57.20;;;;;;5033099;28;20033;-68
2021/03/31 03:17:15;;;;;;;26.25;17.17;;;15.70;56.50;;;;;;5032836;28;20064;-67
2021/03/31 03:19:41;;;;;;;26.90;17.17;;;15.60;56.50;;;;;;5033020;28;20052;-68
2021/03/31 03:22:07;;;;;;;25.45;16.63;;;15.60;56.30;;;;;;5032677;28;20022;-68
2021/03/31 03:24:37;;;;;;;23.85;17.08;;;15.50;56.10;;;;;;5036625;28;20030;-68
2021/03/31 03:27:04;;;;;;;25.42;17.63;;;15.60;56.10;;;;;;5036798;28;20469;-67
2021/03/31 03:29:30;;;;;;;28.63;18.23;;;15.60;56.00;;;;;;5036752;28;20092;-68
2021/03/31 03:31:56;;;;;;;30.60;17.90;;;15.50;56.10;;;;;;5036798;28;20017;-67
2021/03/31 03:34:23;;;;;;;24.98;17.25;;;15.40;56.20;;;;;;5036640;28;20067;-67
2021/03/31 03:36:49;;;;;;;25.85;16.95;;;15.20;56.30;;;;;;5036661;28;20513;-67
2021/03/31 03:39:16;;;;;;;24.27;16.42;;;15.00;56.40;;;;;;5036493;28;20108;-67
2021/03/31 03:41:43;;;;;;;21.60;15.63;;;14.90;56.50;;;;;;5036603;28;20538;-67
2021/03/31 03:44:09;;;;;;;27.17;16.10;;;14.80;56.60;;;;;;5036551;28;20479;-68
2021/03/31 03:46:36;;;;;;;26.73;16.60;;;14.80;56.80;;;;;;5036487;28;20036;-69
2021/03/31 03:49:03;;;;;;;24.30;14.32;;;14.90;56.60;;;;;;5036579;28;20028;-67
2021/03/31 03:51:31;;;;;;;22.73;15.63;;;15.00;56.70;;;;;;5036174;28;20037;-67
2021/03/31 03:53:57;;;;;;;23.35;15.18;;;15.10;56.50;;;;;;5036194;28;20018;-68
2021/03/31 03:56:24;;;;;;;24.33;16.42;;;15.20;56.40;;;;;;5036415;28;20026;-68
2021/03/31 03:58:50;;;;;;;25.30;14.82;;;15.20;56.40;;;;;;5036255;28;20425;-68
2021/03/31 04:01:16;;;;;;;24.48;16.13;;;15.30;56.50;;;;;;5036151;28;20033;-68
2021/03/31 04:03:42;;;;;;;22.67;14.45;;;15.30;56.40;;;;;;5035946;28;20029;-68
2021/03/31 04:06:09;;;;;;;20.55;14.90;;;15.30;56.30;;;;;;5035913;28;20033;-67
2021/03/31 04:08:35;;;;;;;26.63;15.13;;;15.30;56.50;;;;;;5035884;28;20025;-69
2021/03/31 04:11:02;;;;;;;22.38;16.52;;;15.30;56.50;;;;;;5035957;28;20378;-70
2021/03/31 04:13:30;;;;;;;23.73;15.27;;;15.30;56.50;;;;;;5035985;28;20529;-67
2021/03/31 04:16:10;;;;;;;22.40;14.18;;;15.30;56.60;;;;;;5035717;28;20465;-68
2021/03/31 04:18:39;;;;;;;22.17;15.77;;;15.30;56.80;;;;;;5035732;28;20504;-67
2021/03/31 04:21:07;;;;;;;21.90;14.98;;;15.40;56.50;;;;;;5035549;28;20057;-68
2021/03/31 04:23:33;;;;;;;20.73;14.75;;;15.40;56.40;;;;;;5035852;28;20134;-68
2021/03/31 04:25:59;;;;;;;22.27;16.02;;;15.40;56.70;;;;;;5035660;28;20024;-68
2021/03/31 04:28:27;;;;;;;23.13;15.52;;;15.30;56.90;;;;;;5036080;28;20021;-67
2021/03/31 04:30:54;;;;;;;23.15;16.25;;;15.30;57.00;;;;;;5035560;28;20029;-67
2021/03/31 04:33:22;;;;;;;25.13;15.95;;;15.20;57.00;;;;;;5035492;28;20033;-67
2021/03/31 04:35:48;;;;;;;23.10;15.52;;;15.10;58.00;;;;;;5034633;28;20049;-67
2021/03/31 04:38:14;;;;;;;26.33;16.63;;;15.10;57.50;;;;;;5035611;28;20061;-67
2021/03/31 04:40:51;;;;;;;22.33;15.55;;;15.20;57.60;;;;;;5035446;28;20029;-69
2021/03/31 04:43:17;;;;;;;24.15;16.85;;;15.30;57.50;;;;;;5035547;28;20112;-68
2021/03/31 04:45:43;;;;;;;25.73;15.70;;;15.30;57.30;;;;;;5035831;28;20033;-68
2021/03/31 04:48:09;;;;;;;23.35;16.08;;;15.20;57.50;;;;;;5035464;28;20026;-68
2021/03/31 04:50:34;;;;;;;22.17;16.10;;;15.10;57.70;;;;;;5035417;28;20029;-68
2021/03/31 04:53:00;;;;;;;25.88;16.15;;;15.10;57.90;;;;;;5035453;28;20017;-67
2021/03/31 04:55:26;;;;;;;23.83;15.80;;;15.00;57.90;;;;;;5035349;28;20474;-68
2021/03/31 04:57:51;;;;;;;24.67;15.30;;;14.80;57.90;;;;;;5035222;28;20026;-69
2021/03/31 05:00:17;;;;;;;29.85;16.42;;;14.70;58.40;;;;;;5035065;28;20113;-69
2021/03/31 05:02:43;;;;;;;20.52;15.32;;;14.50;58.70;;;;;;5035202;28;20059;-69
2021/03/31 05:05:09;;;;;;;25.02;16.38;;;14.50;59.10;;;;;;5035067;28;20029;-68
2021/03/31 05:07:35;;;;;;;29.00;16.42;;;14.60;58.70;;;;;;5035064;28;20470;-68
2021/03/31 05:10:01;;;;;;;20.45;15.20;;;14.50;58.70;;;;;;5034757;28;20140;-68
2021/03/31 05:12:26;;;;;;;31.48;15.73;;;14.50;58.70;;;;;;5034872;28;20017;-67
2021/03/31 05:14:52;;;;;;;25.98;15.70;;;14.50;58.90;;;;;;5034867;28;20029;-68
2021/03/31 05:17:18;;;;;;;26.15;15.85;;;14.60;58.60;;;;;;5034520;28;20380;-69
2021/03/31 05:19:43;;;;;;;25.52;15.35;;;14.50;58.50;;;;;;5034480;28;20402;-69
2021/03/31 05:22:09;;;;;;;24.92;16.08;;;14.60;58.70;;;;;;5034765;28;20028;-68
2021/03/31 05:24:35;;;;;;;23.13;15.45;;;14.80;58.50;;;;;;5034375;28;20064;-70
2021/03/31 05:27:02;;;;;;;25.45;15.80;;;14.90;58.10;;;;;;5034557;28;20421;-70
2021/03/31 05:29:27;;;;;;;24.13;15.80;;;15.00;58.00;;;;;;5034770;28;20127;-68
2021/03/31 05:31:53;;;;;;;24.23;16.08;;;15.00;57.70;;;;;;5034259;28;20382;-68
2021/03/31 05:34:19;;;;;;;18.20;14.40;;;15.10;57.70;;;;;;5034359;28;20040;-69
2021/03/31 05:36:44;;;;;;;20.67;14.93;;;15.00;57.50;;;;;;5034604;28;20056;-68
2021/03/31 05:39:10;;;;;;;21.98;15.07;;;14.90;57.90;;;;;;5034157;28;20041;-68
2021/03/31 05:41:36;;;;;;;25.98;15.45;;;15.00;57.60;;;;;;5034338;28;20076;-68
2021/03/31 05:44:05;;;;;;;24.73;16.02;;;15.00;57.50;;;;;;5034576;28;20037;-69
2021/03/31 05:46:32;;;;;;;21.38;15.45;;;15.00;57.50;;;;;;5033839;28;20017;-69
2021/03/31 05:48:58;;;;;;;23.60;15.70;;;15.00;57.50;;;;;;5032761;28;20034;-70
2021/03/31 05:51:24;;;;;;;23.55;15.27;;;15.10;57.50;;;;;;5033885;28;20018;-67
2021/03/31 05:53:50;;;;;;;26.88;15.55;;;15.20;57.40;;;;;;5033695;28;20051;-69
2021/03/31 05:56:16;;;;;;;26.33;14.45;;;15.20;57.20;;;;;;5033758;28;20022;-68
2021/03/31 05:58:43;;;;;;;22.95;14.45;;;15.30;57.20;;;;;;5033623;28;20034;-69
2021/03/31 06:01:09;;;;;;;25.63;15.40;;;15.40;56.90;;;;;;5033583;28;20041;-68
2021/03/31 06:03:35;;;;;;;20.33;13.45;;;15.50;56.70;;;;;;5033911;28;20029;-69
2021/03/31 06:06:00;;;;;;;23.10;14.77;;;15.60;56.50;;;;;;5033550;28;20024;-69
2021/03/31 06:08:26;;;;;;;24.80;14.50;;;15.80;55.90;;;;;;5033743;28;20040;-70
2021/03/31 06:10:59;;;;;;;22.27;14.05;;;15.90;55.80;;;;;;5033719;28;20023;-69
2021/03/31 06:13:26;;;;;;;27.77;15.33;;;15.90;55.50;;;;;;5033389;28;20057;-70
2021/03/31 06:15:52;;;;;;;28.02;15.82;;;15.90;55.20;;;;;;5031801;28;20291;-69
2021/03/31 06:18:18;;;;;;;21.77;14.55;;;16.00;55.20;;;;;;5033336;28;20494;-68
2021/03/31 06:20:55;;;;;;;26.35;14.68;;;16.10;55.40;;;;;;5033139;28;20360;-69
2021/03/31 06:23:47;;;;;;;24.83;13.82;;;16.10;54.90;;;;;;5032916;28;20116;-72
2021/03/31 06:26:29;;;;;;;27.27;14.48;;;16.20;54.70;;;;;;5033731;28;20347;-69
2021/03/31 06:29:00;;;;;;;19.23;13.90;;;16.30;54.10;;;;;;5033813;28;20025;-71
2021/03/31 06:31:32;;;;;;;28.30;14.30;;;16.40;54.10;;;;;;5032932;28;20022;-70
2021/03/31 06:34:09;;;;;;;21.98;13.48;;;16.50;53.60;;;;;;5032999;28;20060;-73
2021/03/31 06:36:38;;;;;;;21.85;13.02;;;16.60;53.50;;;;;;5033449;28;20041;-72
2021/03/31 06:39:16;;;;;;;18.17;12.32;;;16.80;53.60;;;;;;5033179;28;20044;-70
2021/03/31 06:41:57;;;;;;;19.63;12.95;;;16.70;53.30;;;;;;5033209;28;20124;-69
2021/03/31 06:48:08;;;;;;;23.75;13.93;;;17.10;53.00;;;;;;5027987;28;20091;-71
2021/03/31 06:50:16;;;;;;;23.15;13.00;;;17.30;53.00;;;;;;5034990;28;20045;-69
2021/03/31 06:52:59;;;;;;;18.52;12.65;;;17.30;53.00;;;;;;5031573;28;20041;-71
2021/03/31 06:55:26;;;;;;;19.25;12.60;;;17.50;51.80;;;;;;5031541;28;20045;-71
2021/03/31 06:57:53;;;;;;;19.70;13.10;;;17.50;52.50;;;;;;5034329;28;20030;-73
2021/03/31 07:00:33;;;;;;;20.00;13.23;;;17.70;52.50;;;;;;5037200;28;20029;-70
2021/03/31 07:03:03;;;;;;;21.02;12.27;;;17.70;52.30;;;;;;5037187;28;20029;-71
2021/03/31 07:05:34;;;;;;;23.48;12.25;;;17.70;52.00;;;;;;5036996;28;20045;-70
2021/03/31 07:08:05;;;;;;;26.20;12.93;;;17.80;51.10;;;;;;5036665;28;20124;-69
2021/03/31 07:10:48;;;;;;;24.25;12.95;;;17.90;51.60;;;;;;5036739;28;20045;-68
2021/03/31 07:13:30;;;;;;;20.35;11.55;;;18.00;50.70;;;;;;5035504;28;20120;-70
2021/03/31 07:15:57;;;;;;;22.23;12.45;;;18.20;51.40;;;;;;5036712;28;20042;-69
2021/03/31 07:18:26;;;;;;;23.13;12.07;;;18.30;51.20;;;;;;5036592;28;20029;-71
2021/03/31 07:20:52;;;;;;;20.45;12.77;;;18.50;51.00;;;;;;5036404;28;20371;-70
2021/03/31 07:23:21;;;;;;;21.92;11.98;;;18.50;50.50;;;;;;5036591;28;20091;-71
2021/03/31 07:25:47;;;;;;;20.13;11.35;;;18.70;50.80;;;;;;5036650;28;20033;-69
2021/03/31 07:28:19;;;;;;;15.73;11.15;;;18.80;50.40;;;;;;5035316;28;20049;-69
2021/03/31 07:30:46;;;;;;;18.67;10.65;;;18.80;49.50;;;;;;5036250;28;20021;-69
2021/03/31 07:33:41;;;;;;;18.17;10.65;;;18.80;49.40;;;;;;5036372;28;20055;-70
2021/03/31 07:36:10;;;;;;;20.92;11.20;;;18.90;48.00;;;;;;5035172;28;20112;-70
2021/03/31 07:38:36;;;;;;;16.75;11.77;;;18.90;49.30;;;;;;5036324;28;20084;-69
2021/03/31 07:41:03;;;;;;;18.52;10.48;;;18.90;49.00;;;;;;5036410;28;20489;-71
2021/03/31 07:43:42;;;;;;;16.63;10.25;;;18.90;48.50;;;;;;5034826;28;20491;-69
2021/03/31 07:46:16;;;;;;;16.60;9.73;;;19.00;49.30;;;;;;5036454;28;20037;-69
2021/03/31 07:48:44;;;;;;;14.70;9.70;;;19.10;48.20;;;;;;5034929;28;20392;-69
2021/03/31 07:51:18;;;;;;;15.52;9.63;;;19.20;48.80;;;;;;5036277;28;20473;-69
2021/03/31 07:53:49;;;;;;;21.30;10.05;;;19.20;48.20;;;;;;5036143;28;20033;-71
2021/03/31 07:56:18;;;;;;;21.33;9.25;;;19.20;47.90;;;;;;5036412;28;20021;-69
2021/03/31 07:59:09;;;;;;;20.63;9.50;;;19.30;47.90;;;;;;5035965;28;20033;-69
2021/03/31 08:01:43;;;;;;;22.23;9.07;;;19.40;47.00;;;;;;5036474;28;20108;-69
2021/03/31 08:04:09;;;;;;;;;;;19.50;46.60;;;;;;5036300;28;20026;-71
2021/03/31 08:06:37;;;;;;;17.90;9.48;;;19.50;47.30;;;;;;5035974;28;19999;-72
2021/03/31 08:09:04;;;;;;;17.98;10.10;;;19.50;47.50;;;;;;5035990;28;20025;-71
2021/03/31 08:11:36;;;;;;;23.83;9.73;;;19.50;47.20;;;;;;5035849;28;20026;-70
2021/03/31 08:14:03;;;;;;;18.77;9.35;;;19.50;46.80;;;;;;5035492;28;20073;-73
2021/03/31 08:16:34;;;;;;;14.57;8.95;;;19.50;46.80;;;;;;5035454;28;20072;-72
2021/03/31 08:19:03;;;;;;;14.75;8.63;;;19.50;46.30;;;;;;5035431;28;20056;-70
2021/03/31 08:21:30;;;;;;;14.32;9.23;;;19.40;46.50;;;;;;5034137;28;20041;-72
2021/03/31 08:23:58;;;;;;;16.35;9.43;;;19.40;47.00;;;;;;5035726;28;20041;-72
2021/03/31 08:26:29;;;;;;;15.43;8.50;;;19.40;46.70;;;;;;5035578;28;20371;-70
2021/03/31 08:28:56;;;;;;;23.08;10.68;;;19.30;46.00;;;;;;5035895;28;20026;-73
2021/03/31 08:31:26;;;;;;;26.20;12.48;;;19.40;47.00;;;;;;5035304;28;20083;-71
2021/03/31 08:33:52;;;;;;;16.80;9.15;;;19.40;47.00;;;;;;5035334;28;20075;-70
2021/03/31 08:36:18;;;;;;;16.58;9.10;;;19.50;47.00;;;;;;5035495;28;20030;-70
2021/03/31 08:38:54;;;;;;;18.23;9.40;;;19.50;46.90;;;;;;5035516;28;20033;-70
2021/03/31 08:41:26;;;;;;;22.52;9.50;;;19.60;46.80;;;;;;5035280;28;20123;-70
2021/03/31 08:44:19;;;;;;;23.40;10.02;;;19.60;46.60;;;;;;5035430;28;20026;-69
2021/03/31 08:46:45;;;;;;;18.13;9.73;;;19.70;45.90;;;;;;5035380;28;20115;-70
2021/03/31 08:49:51;;;;;;;15.27;9.55;;;19.70;46.30;;;;;;5035230;28;20165;-73
2021/03/31 08:52:20;;;;;;;14.57;8.70;;;19.70;45.40;;;;;;5013271;28;20041;-72
2021/03/31 08:54:50;;;;;;;24.02;11.82;;;19.70;46.00;;;;;;5031881;28;20037;-71
2021/03/31 08:57:21;;;;;;;13.40;8.57;;;19.70;45.00;;;;;;5035466;28;20025;-71
2021/03/31 08:59:50;;;;;;;17.05;9.25;;;19.80;45.40;;;;;;5035272;28;20029;-70
2021/03/31 09:02:24;;;;;;;23.15;9.20;;;19.80;44.80;;;;;;5017267;28;20057;-69
2021/03/31 09:04:50;;;;;;;15.77;6.78;;;19.80;44.00;;;;;;5033782;28;20025;-69
2021/03/31 09:07:37;;;;;;;12.98;7.20;;;19.80;44.30;;;;;;5035910;28;20434;-70
2021/03/31 09:10:10;;;;;;;16.33;7.75;;;19.80;44.30;;;;;;5035277;28;20029;-72
2021/03/31 09:12:35;;;;;;;17.35;8.10;;;19.80;43.40;;;;;;5039706;28;20475;-71
2021/03/31 09:15:02;;;;;;;21.85;9.30;;;19.90;43.40;;;;;;5042971;28;20124;-70
2021/03/31 09:17:31;;;;;;;17.70;7.32;;;19.90;43.90;;;;;;5035266;28;20033;-71
2021/03/31 09:20:00;;;;;;;14.98;7.65;;;20.00;43.80;;;;;;5034833;28;20033;-68
2021/03/31 09:22:29;;;;;;;15.38;7.25;;;20.00;44.10;;;;;;5033140;28;20093;-71
2021/03/31 09:24:59;;;;;;;14.10;7.25;;;20.10;44.00;;;;;;5034723;28;20031;-70
2021/03/31 09:27:30;;;;;;;19.13;8.63;;;20.20;43.40;;;;;;5033241;28;20496;-71
2021/03/31 09:29:59;;;;;;;19.42;8.43;;;20.20;43.40;;;;;;5033339;28;20026;-69
2021/03/31 09:32:36;;;;;;;17.60;9.38;;;20.30;43.70;;;;;;5034757;28;20029;-71
2021/03/31 09:35:17;;;;;;;18.08;7.10;;;20.30;43.10;;;;;;5034830;28;20498;-72
2021/03/31 09:37:46;;;;;;;23.23;9.00;;;20.40;43.60;;;;;;5033105;28;20033;-72
2021/03/31 09:40:27;;;;;;;17.48;7.63;;;20.40;43.60;;;;;;5034232;28;20045;-71
2021/03/31 09:42:55;;;;;;;15.63;6.72;;;20.50;42.60;;;;;;5034276;28;20029;-70
2021/03/31 09:45:26;;;;;;;11.75;6.32;;;20.60;43.30;;;;;;5033971;28;20071;-73
2021/03/31 09:47:53;;;;;;;16.88;7.45;;;20.60;42.50;;;;;;5034382;28;20035;-70
2021/03/31 09:50:24;;;;;;;12.65;6.78;;;20.70;42.70;;;;;;5033843;28;20026;-69
2021/03/31 09:52:59;;;;;;;11.23;6.43;;;20.80;42.60;;;;;;5034231;28;20067;-71
2021/03/31 09:55:26;;;;;;;17.90;6.90;;;20.80;41.40;;;;;;5032577;28;20028;-70
2021/03/31 09:57:53;;;;;;;11.02;6.25;;;20.90;42.20;;;;;;5033433;28;20029;-72
2021/03/31 10:00:21;;;;;;;11.82;5.82;;;21.00;42.10;;;;;;5033753;28;20041;-68
2021/03/31 10:02:47;;;;;;;12.23;5.47;;;21.00;41.50;;;;;;5033627;28;20021;-70
2021/03/31 10:05:24;;;;;;;16.08;5.60;;;21.10;41.80;;;;;;5033855;28;20064;-70
2021/03/31 10:08:05;;;;;;;10.48;5.32;;;21.20;41.50;;;;;;5033484;28;20055;-71
2021/03/31 10:10:55;;;;;;;10.75;5.65;;;21.20;41.20;;;;;;5033721;28;20071;-71
2021/03/31 10:13:25;;;;;;;14.10;6.47;;;21.30;40.00;;;;;;5033702;28;20033;-70
2021/03/31 10:16:04;;;;;;;14.30;5.43;;;21.40;41.20;;;;;;5033070;28;20053;-70
2021/03/31 10:18:32;;;;;;;12.80;6.30;;;21.40;40.40;;;;;;5033338;28;20031;-71
2021/03/31 10:21:06;;;;;;;12.10;6.22;;;21.50;40.90;;;;;;5033092;28;20021;-71
2021/03/31 10:23:34;;;;;;;14.82;6.20;;;21.60;40.10;;;;;;5031949;28;20072;-70
2021/03/31 10:26:17;;;;;;;21.77;6.10;;;21.70;40.50;;;;;;5033524;28;20482;-71
2021/03/31 10:28:43;;;;;;;13.20;6.10;;;21.80;40.00;;;;;;5033182;28;20485;-68
2021/03/31 10:31:31;;;;;;;11.20;5.78;;;21.90;39.90;;;;;;5033125;28;20033;-72
2021/03/31 10:33:58;;;;;;;11.18;5.50;;;22.00;38.90;;;;;;5032411;28;20079;-71
2021/03/31 10:36:41;;;;;;;17.40;5.43;;;22.00;39.80;;;;;;5033179;28;20100;-72
2021/03/31 10:46:49;;;;;;;10.57;4.95;;;22.20;37.70;;;;;;5033106;28;20025;-69
2021/03/31 10:47:31;;;;;;;8.88;4.32;;;22.30;37.70;;;;;;5032985;28;20051;-69
2021/03/31 10:50:00;;;;;;;12.05;4.95;;;22.40;39.40;;;;;;5032804;28;20080;-71
2021/03/31 10:52:28;;;;;;;9.18;5.45;;;22.60;38.80;;;;;;5032897;28;20048;-69
2021/03/31 10:54:56;;;;;;;16.75;6.82;;;22.60;38.30;;;;;;5032861;28;20022;-69
2021/03/31 10:57:22;;;;;;;10.60;5.47;;;22.70;38.30;;;;;;5032922;28;20463;-69
2021/03/31 10:59:48;;;;;;;19.52;6.40;;;22.70;38.30;;;;;;5033030;28;20033;-72
2021/03/31 11:02:14;;;;;;;14.38;5.53;;;22.80;38.00;;;;;;5031704;28;20032;-69
2021/03/31 11:04:40;;;;;;;10.13;5.03;;;22.80;37.90;;;;;;5032861;28;20054;-72
2021/03/31 11:07:05;;;;;;;10.10;5.03;;;22.90;38.10;;;;;;5032698;28;20461;-70
2021/03/31 11:09:31;;;;;;;11.05;5.07;;;23.00;37.80;;;;;;5031565;28;20029;-68
2021/03/31 11:11:57;;;;;;;12.75;5.05;;;23.10;37.70;;;;;;5032929;28;20493;-72
2021/03/31 11:14:24;;;;;;;10.90;4.95;;;23.30;37.80;;;;;;5033011;28;20027;-70
2021/03/31 11:28:03;;;;;;;12.60;5.65;;;23.50;37.00;;;;;;5032599;28;20026;-69
2021/03/31 11:30:29;;;;;;;15.60;5.60;;;23.50;37.40;;;;;;5032778;28;20053;-68
2021/03/31 11:32:55;;;;;;;11.55;5.22;;;23.60;37.50;;;;;;5032504;28;20021;-71
2021/03/31 11:35:21;;;;;;;12.75;5.45;;;23.70;37.60;;;;;;5032835;28;20041;-68
2021/03/31 11:37:47;;;;;;;10.60;4.68;;;23.80;37.30;;;;;;5032852;28;20021;-70
2021/03/31 11:40:13;;;;;;;12.23;5.18;;;23.80;37.10;;;;;;5032597;28;20087;-69
2021/03/31 11:42:39;;;;;;;12.07;5.15;;;23.90;37.10;;;;;;5015162;28;20553;-73
2021/03/31 11:45:05;;;;;;;10.10;4.53;;;24.00;37.60;;;;;;5035191;28;20132;-72
2021/03/31 11:47:31;;;;;;;15.07;5.00;;;24.00;37.00;;;;;;5036072;28;20519;-69
2021/03/31 11:49:56;;;;;;;17.80;4.35;;;24.10;37.10;;;;;;5036050;28;20021;-69
2021/03/31 11:52:22;;;;;;;13.75;4.30;;;24.10;36.80;;;;;;5036213;28;20040;-71
2021/03/31 11:54:48;;;;;;;10.55;4.30;;;24.10;36.80;;;;;;5034679;28;20511;-69
2021/03/31 11:57:17;;;;;;;10.98;4.65;;;24.20;36.70;;;;;;5034795;28;20104;-71
2021/03/31 11:59:42;;;;;;;9.52;4.53;;;24.30;37.00;;;;;;5036081;28;20508;-71
2021/03/31 12:02:09;;;;;;;13.13;4.68;;;24.30;36.70;;;;;;5035925;28;20096;-70
2021/03/31 12:04:34;;;;;;;9.25;4.30;;;24.40;36.50;;;;;;5035805;28;20033;-71
2021/03/31 12:07:02;;;;;;;7.97;4.32;;;24.40;36.70;;;;;;5036044;28;20076;-69
2021/03/31 12:09:30;;;;;;;9.60;4.70;;;24.40;36.50;;;;;;5035914;28;20033;-68
2021/03/31 12:11:56;;;;;;;11.77;4.88;;;24.40;36.40;;;;;;5034585;28;20025;-72
2021/03/31 12:14:21;;;;;;;13.43;4.30;;;24.40;36.60;;;;;;5034682;28;20064;-69
2021/03/31 12:16:50;;;;;;;10.27;4.15;;;24.50;36.40;;;;;;5035885;28;20057;-70
2021/03/31 12:19:15;;;;;;;12.30;4.50;;;24.60;36.50;;;;;;5036085;28;20041;-70
2021/03/31 12:21:44;;;;;;;10.07;4.10;;;24.60;35.90;;;;;;5035954;28;20025;-71
2021/03/31 12:24:19;;;;;;;10.77;4.55;;;24.60;35.30;;;;;;5037818;28;20037;-71
2021/03/31 12:26:45;;;;;;;9.52;3.83;;;24.60;35.10;;;;;;5035439;28;20420;-70
2021/03/31 12:29:16;;;;;;;9.57;4.70;;;24.60;35.40;;;;;;5035977;28;20112;-71
2021/03/31 12:31:42;;;;;;;8.70;4.40;;;24.70;35.10;;;;;;5035397;28;20081;-69
2021/03/31 12:34:08;;;;;;;10.35;3.75;;;24.70;34.90;;;;;;5035402;28;20029;-70
2021/03/31 12:36:34;;;;;;;13.68;4.03;;;24.70;34.50;;;;;;5035709;28;20022;-70
2021/03/31 12:39:01;;;;;;;14.82;3.78;;;24.80;34.50;;;;;;5035464;28;20364;-70
2021/03/31 12:41:32;;;;;;;17.90;4.88;;;24.90;34.50;;;;;;5034901;28;20053;-73
2021/03/31 12:43:58;;;;;;;9.50;3.78;;;24.90;33.90;;;;;;5034165;28;20033;-71
2021/03/31 12:46:25;;;;;;;11.90;3.50;;;24.90;33.80;;;;;;5035354;28;20024;-72
2021/03/31 12:48:52;;;;;;;11.27;3.58;;;24.90;33.00;;;;;;5035128;28;20038;-70
2021/03/31 12:51:40;;;;;;;6.68;3.00;;;25.00;33.20;;;;;;5035243;28;20021;-70
2021/03/31 12:56:38;;;;;;;8.20;2.97;;;25.10;32.20;;;;;;5033234;28;20030;-71
2021/03/31 12:59:04;;;;;;;10.98;2.72;;;25.10;31.70;;;;;;5033418;28;20433;-71
2021/03/31 13:01:30;;;;;;;10.55;3.03;;;25.10;31.70;;;;;;5034637;28;20026;-69
2021/03/31 13:03:56;;;;;;;9.15;3.30;;;25.10;31.30;;;;;;5034460;28;20021;-70
2021/03/31 13:06:26;;;;;;;8.60;2.90;;;25.10;31.10;;;;;;5034582;28;20075;-69